Flight Track Log - Related Links

Times and Time Zones

All times are in EDT time to prevent confusion due to time zone crossing. See the UAL4236 flight status page for this flight to view local times or setup timezone preferences in your user account.

Time Position Orientation Groundspeed Altitude Reporting Facility
EDT Latitude Longitude Course Direction KTS MPH feet Rate Location/Type
Fri 10:14:12 AM 29.9594 -95.3414 276° West 149 171 700  Level Houston Center
Fri 10:14:55 AM 29.9294 -95.3572 205° Southwest 206 237 2,000 1,500 Climbing Houston Center
Fri 10:15:12 AM 29.9272 -95.3642 250° West 233 268 2,200 2,164 Climbing Houston Center
Fri 10:15:56 AM 29.8908 -95.4194 233° Southwest 244 281 4,200 2,613 Climbing Houston Center
Fri 10:16:14 AM 29.8889 -95.4431 265° West 246 283 4,900 2,250 Climbing Houston Center
Fri 10:17:00 AM 30.0307 -95.7759 277° West  Level FlightAware Approximate
Fri 10:17:16 AM 29.9058 -95.5258 283° West 265 305 7,200  Level Houston Center
Fri 10:18:00 AM 30.0406 -95.8872 276° West  Level FlightAware Approximate
Fri 10:18:18 AM 29.9294 -95.6086 288° West 274 315 9,700  Level Houston Center
Fri 10:19:00 AM 30.0499 -95.9986 276° West  Level FlightAware Approximate
Fri 10:19:20 AM 29.9531 -95.6969 287° West 283 326 10,800  Level Houston Center
Fri 10:20:21 AM 29.9800 -95.7961 287° West 319 367 11,800 927 Climbing Houston Center
Fri 10:21:23 AM 30.0083 -95.9008 287° West 340 391 12,700 968 Climbing Houston Center
Fri 10:22:25 AM 30.0408 -96.0242 287° West 355 409 13,800 1,016 Climbing Houston Center
Fri 10:23:27 AM 30.0708 -96.1361 287° West 363 418 14,800 968 Climbing Houston Center
Fri 10:24:29 AM 30.0994 -96.2486 286° West 366 421 15,800 968 Climbing Houston Center
Fri 10:25:31 AM 30.1178 -96.3644 280° West 369 425 16,800 919 Climbing Houston Center
Fri 10:26:33 AM 30.1367 -96.4864 280° West 368 423 17,700 1,161 Climbing Houston Center
Fri 10:27:35 AM 30.1572 -96.6264 280° West 372 428 19,200 1,258 Climbing Houston Center
Fri 10:28:37 AM 30.1756 -96.7450 280° West 370 426 20,300 1,024 Climbing Houston Center
Fri 10:29:38 AM 30.1933 -96.8692 279° West 382 440 21,300 976 Climbing Houston Center
Fri 10:30:40 AM 30.2119 -96.9928 280° West 384 442 22,300 1,016 Climbing Houston Center
Fri 10:31:42 AM 30.2300 -97.1197 279° West 392 451 23,400 1,008 Climbing Houston Center
Fri 10:32:45 AM 30.2486 -97.2464 280° West 394 453 24,400 960 Climbing Houston Center
Fri 10:33:47 AM 30.2667 -97.3714 280° West 391 450 25,400 968 Climbing Houston Center
Fri 10:34:49 AM 30.2853 -97.4950 280° West 387 445 26,400 968 Climbing Houston Center
Fri 10:35:51 AM 30.3028 -97.6161 280° West 379 436 27,400 1,016 Climbing Houston Center
Fri 10:36:53 AM 30.3228 -97.7550 280° West 373 429 28,500 1,016 Climbing Houston Center
Fri 10:37:55 AM 30.3392 -97.8744 279° West 371 427 29,500 968 Climbing Houston Center
Fri 10:38:57 AM 30.3556 -97.9903 279° West 364 419 30,500 968 Climbing Houston Center
Fri 10:39:59 AM 30.3719 -98.1097 279° West 370 426 31,500 871 Climbing Houston Center
Fri 10:41:01 AM 30.3883 -98.2286 279° West 371 427 32,300 871 Climbing Houston Center
Fri 10:42:03 AM 30.4056 -98.3500 279° West 377 434 33,300 823 Climbing Houston Center
Fri 10:43:05 AM 30.4228 -98.4703 279° West 375 432 34,000 339 Climbing Houston Center
Fri 10:44:07 AM 30.4369 -98.5925 278° West 377 434 34,000  Level Houston Center
Fri 10:45:09 AM 30.4569 -98.7400 279° West 392 451 34,000  Level Houston Center
Fri 10:46:12 AM 30.4761 -98.8664 280° West 395 455 34,000  Level Houston Center
Fri 10:47:14 AM 30.4928 -98.9933 279° West 396 456 34,000  Level Houston Center
Fri 10:48:16 AM 30.5100 -99.1208 279° West 395 455 34,000  Level Houston Center
Fri 10:49:18 AM 30.5258 -99.2406 279° West 396 456 34,000  Level Houston Center
Fri 10:50:20 AM 30.5458 -99.3903 279° West 395 455 34,000  Level Houston Center
Fri 10:51:22 AM 30.5611 -99.5153 278° West 394 453 34,000  Level Houston Center
Fri 10:52:24 AM 30.5772 -99.6403 279° West 396 456 34,000  Level Houston Center
Fri 10:53:26 AM 30.5936 -99.7656 279° West 395 455 34,000  Level Houston Center
Fri 10:54:28 AM 30.6139 -99.8903 281° West 395 455 34,000  Level Houston Center
Fri 10:55:30 AM 30.6386 -100.0133 283° West 395 455 34,000  Level Houston Center
Fri 10:56:33 AM 30.6686 -100.1622 283° West 397 457 34,000  Level Houston Center
Fri 10:57:35 AM 30.6931 -100.2842 283° West 397 457 34,000  Level Houston Center
Fri 10:58:37 AM 30.7186 -100.4094 283° West 401 461 34,000  Level Houston Center
Fri 10:59:39 AM 30.7431 -100.5333 283° West 399 459 34,000  Level Houston Center
Fri 11:00:41 AM 30.7719 -100.6811 283° West 396 456 34,000  Level Houston Center
Fri 11:01:43 AM 30.7953 -100.8069 282° West 401 461 34,000  Level Houston Center
Fri 11:02:45 AM 30.8211 -100.9297 284° West 396 456 34,000  Level Houston Center
Fri 11:03:47 AM 30.8444 -101.0539 282° West 395 455 34,000  Level Houston Center
Fri 11:04:50 AM 30.8694 -101.1783 283° West 396 456 34,000  Level Houston Center
Fri 11:05:52 AM 30.8933 -101.2992 283° West 389 448 34,000  Level Houston Center
Fri 11:06:18 AM 30.9083 -101.3789 282° West 394 453 34,000  Level Albuquerque Center
Fri 11:07:21 AM 30.9303 -101.5044 282° West 395 455 34,000  Level Albuquerque Center
Fri 11:08:22 AM 30.9544 -101.6292 283° West 395 455 34,000  Level Albuquerque Center
Fri 11:09:24 AM 30.9781 -101.7533 283° West 393 452 34,000  Level Albuquerque Center
Fri 11:10:26 AM 31.0014 -101.8778 282° West 393 452 34,000  Level Albuquerque Center
Fri 11:11:28 AM 31.0244 -102.0094 282° West 403 464 34,000  Level Albuquerque Center
Fri 11:12:30 AM 31.0486 -102.1319 283° West 395 455 34,000  Level Albuquerque Center
Fri 11:13:32 AM 31.0703 -102.2569 281° West 393 452 34,000  Level Albuquerque Center
Fri 11:14:34 AM 31.0981 -102.4044 282° West 389 448 34,000  Level Albuquerque Center
Fri 11:15:36 AM 31.1206 -102.5283 282° West 389 448 34,000  Level Albuquerque Center
Fri 11:16:38 AM 31.1425 -102.6539 282° West 384 442 34,000  Level Albuquerque Center
Fri 11:17:40 AM 31.1653 -102.7786 282° West 389 448 34,000  Level Albuquerque Center
Fri 11:18:43 AM 31.1867 -102.9008 282° West 387 445 34,000  Level Albuquerque Center
Fri 11:19:45 AM 31.2092 -103.0236 282° West 386 444 34,000  Level Albuquerque Center
Fri 11:20:47 AM 31.2303 -103.1464 281° West 386 444 34,000  Level Albuquerque Center
Fri 11:21:49 AM 31.2550 -103.2936 281° West 386 444 34,000  Level Albuquerque Center
Fri 11:22:51 AM 31.2764 -103.4158 282° West 385 443 34,000  Level Albuquerque Center
Fri 11:23:53 AM 31.2964 -103.5381 281° West 385 443 34,000  Level Albuquerque Center
Fri 11:24:55 AM 31.3181 -103.6594 282° West 383 441 34,000  Level Albuquerque Center
Fri 11:25:57 AM 31.3381 -103.7750 281° West 382 440 34,000  Level Albuquerque Center
Fri 11:26:59 AM 31.3636 -103.9211 282° West 384 442 34,000  Level Albuquerque Center
Fri 11:28:01 AM 31.3867 -104.0422 283° West 383 441 34,000  Level Albuquerque Center
Fri 11:29:03 AM 31.4061 -104.1647 281° West 385 443 34,000  Level Albuquerque Center
Fri 11:30:05 AM 31.4261 -104.2850 281° West 382 440 34,000  Level Albuquerque Center
Fri 11:31:07 AM 31.4464 -104.4078 281° West 384 442 34,000 -97 Level Albuquerque Center
Fri 11:32:09 AM 31.4644 -104.5544 278° West 383 441 33,800 -1,113 Descending Albuquerque Center
Fri 11:33:11 AM 31.4764 -104.6767 277° West 382 440 31,700 -1,984 Descending Albuquerque Center
Fri 11:34:13 AM 31.4894 -104.7981 277° West 381 438 29,700 -1,887 Descending Albuquerque Center
Fri 11:35:15 AM 31.5022 -104.9164 277° West 373 429 27,800 -1,887 Descending Albuquerque Center
Fri 11:36:17 AM 31.5150 -105.0414 277° West 383 441 25,800 -2,177 Descending Albuquerque Center
Fri 11:37:19 AM 31.5308 -105.1944 277° West 394 453 23,300 -2,274 Descending Albuquerque Center
Fri 11:38:21 AM 31.5431 -105.3228 276° West 399 459 21,100 -2,032 Descending Albuquerque Center
Fri 11:39:23 AM 31.5539 -105.4500 276° West 392 451 19,100 -1,983 Descending Albuquerque Center
Fri 11:40:19 AM 31.5647 -105.5686 276° West 374 430 17,200 -2,054 Descending Albuquerque Center
Fri 11:41:14 AM 31.5764 -105.6756 277° West 361 415 15,300 -1,983 Descending Albuquerque Center
Fri 11:42:14 AM 31.5869 -105.7900 276° West 352 405 13,400 -1,680 Descending Albuquerque Center
Fri 11:42:29 AM 31.5903 -105.8008 290° West 355 409 13,200 -1,855 Descending Albuquerque Center
Fri 11:43:09 AM 31.6297 -105.8817 300° West 342 394 11,700 -2,129 Descending Albuquerque Center
Fri 11:43:31 AM 31.6464 -105.9158 300° West 338 389 11,000 -1,367 Descending Albuquerque Center
Fri 11:44:28 AM 31.6844 -105.9925 300° West 276 318 9,900 -1,380 Descending Albuquerque Center
Fri 11:45:11 AM 31.7089 -106.0439 299° West 255 293 8,700 -1,676 Descending Albuquerque Center
Fri 11:45:36 AM 31.7261 -106.0678 310° West 260 299 8,000 -1,900 Descending Albuquerque Center
Fri 11:46:11 AM 31.7597 -106.1111 312° West 252 290 6,800 -1,452 Descending Albuquerque Center
Fri 11:46:38 AM 31.7750 -106.1272 318° Northwest 255 293 6,500 -247 Descending Albuquerque Center
Fri 11:47:24 AM 31.7914 -106.1906 287° West 235 270 6,500  Level Albuquerque Center

Login

Don't have an account? Register now (free) for customized features, flight alerts, and more!